createdAt,value
2019-01-14T00:10:44.148Z,87.52
2019-01-14T00:15:48.718Z,88.24
2019-01-14T00:21:11.930Z,88.81
2019-01-14T00:26:16.228Z,90.24
2019-01-14T00:36:49.649Z,89.02
2019-01-14T00:41:53.974Z,90.07
2019-01-14T00:47:44.639Z,89.84
2019-01-14T00:52:48.913Z,89.67
2019-01-14T00:57:53.137Z,90.37
2019-01-14T01:02:57.381Z,91.35
2019-01-14T01:08:01.609Z,92.50
2019-01-14T01:13:05.863Z,93.35
2019-01-14T01:18:29.157Z,92.65
2019-01-14T01:23:33.376Z,91.41
2019-01-14T01:28:37.603Z,90.75
2019-01-14T01:34:01.211Z,90.79
2019-01-14T01:39:46.902Z,91.15
2019-01-14T01:50:13.200Z,90.93
2019-01-14T01:55:29.356Z,91.25
2019-01-14T02:11:12.880Z,91.91
2019-01-14T02:21:47.576Z,92.88
2019-01-14T02:26:51.805Z,92.29
2019-01-14T02:32:15.096Z,93.60
2019-01-14T02:37:19.315Z,93.57
2019-01-14T02:42:23.564Z,92.79
2019-01-14T02:52:56.911Z,92.08
2019-01-14T03:03:10.980Z,93.46
2019-01-14T03:08:34.597Z,94.19
2019-01-14T03:13:38.824Z,94.21
2019-01-14T03:18:43.050Z,94.80
2019-01-14T03:23:47.628Z,94.50
2019-01-14T03:28:51.880Z,94.61
2019-01-14T03:33:56.108Z,95.19
2019-01-14T03:39:00.334Z,95.07
2019-01-14T03:49:35.438Z,93.69
2019-01-14T03:54:51.699Z,92.82
2019-01-14T04:00:14.859Z,93.15
2019-01-14T04:05:19.496Z,93.50
2019-01-14T04:10:42.789Z,93.75
2019-01-14T04:20:57.482Z,94.53
2019-01-14T04:26:02.041Z,94.82
2019-01-14T04:31:25.461Z,94.93
2019-01-14T04:36:29.686Z,95.03
2019-01-14T04:41:33.916Z,92.68
2019-01-14T04:52:07.157Z,92.70
2019-01-14T04:57:30.478Z,92.77
2019-01-14T05:13:14.203Z,93.01
2019-01-14T05:18:18.437Z,92.39
2019-01-14T05:23:41.767Z,92.47
2019-01-14T05:28:46.002Z,91.95
2019-01-14T05:34:09.677Z,91.24
2019-01-14T05:39:14.036Z,91.66
2019-01-14T05:44:18.221Z,91.93
2019-01-14T05:49:22.783Z,92.42
2019-01-14T05:59:50.768Z,91.33
2019-01-14T06:05:35.265Z,91.31
2019-01-14T06:11:20.156Z,91.66
2019-01-14T06:28:11.555Z,91.06
2019-01-14T06:33:55.279Z,91.77
2019-01-14T06:57:14.817Z,93.01
2019-01-14T07:02:31.429Z,92.61
2019-01-14T07:07:47.950Z,92.74
2019-01-14T07:13:33.152Z,92.22
2019-01-14T07:19:18.336Z,93.09
2019-01-14T07:36:44.567Z,93.00
2019-01-14T07:42:15.009Z,93.45
2019-01-14T07:47:59.510Z,93.66
2019-01-14T07:59:35.011Z,93.33
2019-01-14T08:04:53.297Z,93.69
2019-01-14T08:10:10.079Z,93.85
2019-01-14T08:15:28.201Z,94.16
2019-01-14T08:20:45.067Z,94.36
2019-01-14T08:26:01.541Z,94.98
2019-01-14T08:31:19.330Z,91.76
2019-01-14T08:36:37.384Z,91.59
2019-01-14T08:41:58.829Z,91.67
2019-01-14T08:47:15.576Z,91.33
2019-01-14T08:52:33.201Z,92.11
2019-01-14T08:57:54.441Z,91.62
2019-01-14T09:08:59.929Z,91.24
2019-01-14T09:14:17.068Z,91.37
2019-01-14T09:19:35.024Z,91.34
2019-01-14T09:24:51.769Z,90.99
2019-01-14T09:30:09.307Z,91.08
2019-01-14T09:35:27.267Z,91.06
2019-01-14T09:41:11.622Z,90.72
2019-01-14T09:52:47.844Z,91.29
2019-01-14T10:04:25.500Z,91.54
2019-01-14T10:09:45.267Z,91.84
2019-01-14T10:15:02.709Z,91.42
2019-01-14T10:20:21.109Z,91.79
2019-01-14T10:25:38.406Z,90.71
2019-01-14T10:30:55.949Z,91.09
2019-01-14T10:36:15.377Z,89.70
2019-01-14T10:41:32.988Z,89.31
2019-01-14T10:47:02.244Z,89.22
2019-01-14T10:52:09.399Z,88.56
2019-01-14T10:57:18.711Z,86.97
2019-01-14T11:02:26.877Z,86.46
2019-01-14T11:07:32.893Z,86.07
2019-01-14T11:12:40.050Z,84.30
2019-01-14T11:17:48.581Z,83.44
2019-01-14T11:22:59.781Z,83.34
2019-01-14T11:28:09.538Z,81.78
2019-01-14T11:33:17.762Z,81.22
2019-01-14T11:38:44.174Z,81.94
2019-01-14T11:43:50.592Z,80.60
2019-01-14T11:48:58.219Z,80.20
2019-01-14T11:54:06.128Z,79.57
2019-01-14T11:59:12.923Z,79.68
2019-01-14T12:04:19.458Z,81.58
2019-01-14T12:09:30.020Z,79.59
2019-01-14T12:14:42.302Z,79.83
2019-01-14T12:19:50.689Z,78.20
2019-01-14T12:24:57.212Z,77.64
2019-01-14T12:30:04.440Z,76.87
2019-01-14T12:35:12.398Z,74.96
2019-01-14T12:40:24.039Z,74.61
2019-01-14T12:45:29.848Z,76.18
2019-01-14T12:50:36.739Z,76.89
2019-01-14T12:55:42.878Z,76.38
2019-01-14T13:00:49.023Z,76.93
2019-01-14T13:05:55.233Z,78.48
2019-01-14T13:11:01.614Z,78.71
2019-01-14T13:16:12.399Z,79.87
2019-01-14T13:21:19.668Z,79.13
2019-01-14T13:26:26.079Z,79.39
2019-01-14T13:31:35.820Z,79.43
2019-01-14T13:36:42.126Z,80.10
2019-01-14T13:41:51.475Z,79.96
2019-01-14T13:46:58.314Z,79.20
2019-01-14T13:52:04.649Z,80.02
2019-01-14T13:57:17.108Z,80.70
2019-01-14T14:08:12.608Z,81.21
2019-01-14T14:13:35.932Z,80.88
2019-01-14T14:24:23.079Z,79.18
2019-01-14T14:29:27.760Z,79.80
2019-01-14T14:40:01.773Z,84.03
2019-01-14T14:45:45.969Z,86.22
2019-01-14T14:50:50.245Z,87.28
2019-01-14T15:01:42.641Z,88.49
2019-01-14T15:07:05.944Z,88.26
2019-01-14T15:12:29.260Z,88.31
2019-01-14T15:17:33.865Z,87.88
2019-01-14T15:22:38.139Z,88.47
2019-01-14T15:38:22.292Z,89.31
2019-01-14T15:48:36.052Z,89.19
2019-01-14T15:53:40.291Z,89.35
2019-01-14T15:58:44.516Z,88.99
2019-01-14T16:04:07.884Z,89.20
2019-01-14T16:09:12.119Z,89.42
2019-01-14T16:14:16.346Z,90.02
2019-01-14T16:24:30.652Z,90.18
2019-01-14T16:29:34.945Z,90.20
2019-01-14T16:34:39.179Z,90.03
2019-01-14T16:39:43.719Z,90.12
2019-01-14T16:44:48.005Z,89.73
2019-01-14T16:55:02.101Z,90.05
2019-01-14T17:00:25.410Z,90.22
2019-01-14T17:05:48.707Z,90.35
2019-01-14T17:11:12.062Z,90.26
2019-01-14T17:16:35.368Z,89.76
2019-01-14T17:21:39.946Z,89.90
2019-01-14T17:26:44.272Z,90.15
2019-01-14T17:32:07.577Z,90.55
2019-01-14T17:37:11.807Z,90.94
2019-01-14T17:42:35.527Z,90.33
2019-01-14T17:47:58.841Z,90.07
2019-01-14T17:58:13.267Z,88.84
2019-01-14T18:03:17.593Z,88.88
2019-01-14T18:24:10.906Z,86.52
2019-01-14T18:29:26.702Z,85.85
2019-01-14T18:34:30.953Z,85.97
2019-01-14T18:39:35.198Z,86.25
2019-01-14T18:44:39.439Z,86.16
2019-01-14T18:49:43.670Z,86.50
2019-01-14T18:54:49.876Z,86.33
2019-01-14T19:00:13.329Z,86.59
2019-01-14T19:05:17.603Z,86.88
2019-01-14T19:10:22.336Z,87.43
2019-01-14T19:15:45.686Z,87.40
2019-01-14T19:26:51.891Z,88.60
2019-01-14T19:32:08.177Z,87.60
2019-01-14T19:37:13.046Z,88.35
2019-01-14T19:42:17.504Z,88.18
2019-01-14T19:47:23.020Z,87.89
2019-01-14T19:52:27.422Z,88.32
2019-01-14T19:57:31.753Z,87.30
2019-01-14T20:02:36.008Z,87.39
2019-01-14T20:18:38.280Z,88.41
2019-01-14T20:24:01.602Z,87.68
2019-01-14T20:29:05.896Z,87.48
2019-01-14T20:34:22.224Z,87.28
2019-01-14T20:39:26.478Z,87.69
2019-01-14T20:49:40.551Z,87.95
2019-01-14T21:00:34.209Z,88.35
2019-01-14T21:05:38.428Z,88.67
2019-01-14T21:26:33.322Z,88.95
2019-01-14T21:31:56.638Z,89.05
2019-01-14T21:37:01.025Z,89.08
2019-01-14T21:42:24.343Z,88.71
2019-01-14T21:58:47.472Z,87.20
2019-01-14T22:03:51.929Z,87.82
2019-01-14T22:09:35.599Z,87.95
2019-01-14T22:14:39.858Z,87.79
2019-01-14T22:19:45.426Z,87.73
2019-01-14T22:24:50.478Z,87.99
2019-01-14T22:30:15.924Z,88.05
2019-01-14T22:35:39.262Z,88.28
2019-01-14T22:40:54.949Z,88.34
2019-01-14T22:51:49.743Z,88.50
2019-01-14T22:57:13.055Z,88.71
2019-01-14T23:17:47.533Z,88.64
2019-01-14T23:22:52.412Z,89.17
2019-01-14T23:28:15.729Z,88.63
2019-01-14T23:33:19.982Z,88.42
2019-01-14T23:38:43.383Z,88.14
2019-01-14T23:48:57.452Z,88.31
2019-01-14T23:54:20.754Z,87.95
2019-01-14T23:59:25.012Z,88.01
